Time;durP1;ratioP1;P1;durP2;ratioP2;P2;SDS_P1;SDS_P2;PMS_P1;PMS_P2;Temp;Humidity;BMP_temperature;BMP_pressure;BME280_temperature;BME280_humidity;BME280_pressure;Samples;Min_cycle;Max_cycle;Signal;HPM_P1;HPM_P2
2023/05/10 00:00:27;;;;;;;39.60;25.33;;;;;;;;;;5035989;28;20177;-69
2023/05/10 00:02:53;;;;;;;42.47;25.87;;;;;;;;;;5035861;28;20178;-68
2023/05/10 00:05:19;;;;;;;36.87;24.27;;;;;;;;;;5035770;28;20557;-69
2023/05/10 00:07:45;;;;;;;31.87;21.40;;;;;;;;;;5035627;28;20351;-68
2023/05/10 00:10:11;;;;;;;34.67;20.50;;;;;;;;;;5035686;28;20661;-69
2023/05/10 00:12:37;;;;;;;31.47;20.77;;;;;;;;;;5053738;28;20179;-69
2023/05/10 00:15:03;;;;;;;37.27;21.90;;;;;;;;;;5036466;28;20182;-68
2023/05/10 00:17:29;;;;;;;32.13;19.87;;;;;;;;;;5035592;28;20206;-68
2023/05/10 00:19:55;;;;;;;32.07;20.87;;;;;;;;;;5053390;28;20209;-69
2023/05/10 00:22:21;;;;;;;33.80;20.70;;;;;;;;;;5035590;28;20659;-69
2023/05/10 00:24:47;;;;;;;31.90;21.00;;;;;;;;;;5035520;28;20174;-69
2023/05/10 00:27:13;;;;;;;34.10;20.87;;;;;;;;;;5034711;28;20202;-69
2023/05/10 00:29:39;;;;;;;31.63;20.87;;;;;;;;;;5053276;28;20178;-70
2023/05/10 00:32:05;;;;;;;35.77;21.17;;;;;;;;;;5053468;28;20186;-70
2023/05/10 00:34:31;;;;;;;32.30;21.90;;;;;;;;;;5035412;28;20612;-68
2023/05/10 00:36:57;;;;;;;35.47;20.23;;;;;;;;;;5052953;28;20241;-68
2023/05/10 00:39:23;;;;;;;34.93;21.77;;;;;;;;;;5035313;28;20210;-68
2023/05/10 00:41:49;;;;;;;35.00;22.63;;;;;;;;;;5035297;28;20277;-68
2023/05/10 00:44:15;;;;;;;37.47;22.47;;;;;;;;;;5053113;28;20181;-68
2023/05/10 00:46:41;;;;;;;36.67;21.93;;;;;;;;;;5053230;28;20229;-68
2023/05/10 00:49:07;;;;;;;40.87;24.90;;;;;;;;;;5035354;28;20648;-68
2023/05/10 00:51:33;;;;;;;40.80;24.67;;;;;;;;;;5035481;28;20178;-68
2023/05/10 00:53:59;;;;;;;43.43;24.83;;;;;;;;;;5036051;28;20189;-68
2023/05/10 00:56:26;;;;;;;40.30;25.73;;;;;;;;;;5036786;28;20702;-68
2023/05/10 00:58:52;;;;;;;42.53;26.93;;;;;;;;;;5037819;28;20648;-70
2023/05/10 01:01:18;;;;;;;41.53;24.53;;;;;;;;;;5037626;28;20183;-70
2023/05/10 01:03:44;;;;;;;39.07;24.37;;;;;;;;;;5069866;28;20181;-70
2023/05/10 01:06:10;;;;;;;40.63;24.60;;;;;;;;;;5064507;28;20198;-70
2023/05/10 01:08:36;;;;;;;40.10;24.07;;;;;;;;;;5036413;28;20213;-69
2023/05/10 01:11:02;;;;;;;37.73;24.63;;;;;;;;;;5053646;28;20299;-70
2023/05/10 01:13:39;;;;;;;39.27;23.13;;;;;;;;;;5053613;28;20178;-68
2023/05/10 01:16:06;;;;;;;40.23;24.60;;;;;;;;;;5035037;28;20554;-68
2023/05/10 01:18:34;;;;;;;35.40;22.90;;;;;;;;;;5034853;28;20259;-68
2023/05/10 01:21:05;;;;;;;36.17;23.57;;;;;;;;;;5035027;28;20194;-69
2023/05/10 01:23:31;;;;;;;35.03;21.70;;;;;;;;;;5053047;28;20158;-68
2023/05/10 01:26:00;;;;;;;37.90;22.90;;;;;;;;;;5052735;28;20254;-69
2023/05/10 01:28:35;;;;;;;42.00;24.33;;;;;;;;;;5034978;28;20524;-68
2023/05/10 01:31:09;;;;;;;36.47;23.07;;;;;;;;;;5052686;28;20248;-68
2023/05/10 01:33:36;;;;;;;40.30;24.93;;;;;;;;;;5034851;28;20178;-68
2023/05/10 01:36:14;;;;;;;41.07;24.67;;;;;;;;;;5034564;28;20670;-68
2023/05/10 01:38:57;;;;;;;37.80;24.13;;;;;;;;;;5054432;28;20205;-69
2023/05/10 01:41:29;;;;;;;41.40;23.73;;;;;;;;;;5039254;28;20198;-69
2023/05/10 01:44:07;;;;;;;41.07;24.13;;;;;;;;;;5056388;28;20250;-69
2023/05/10 01:46:37;;;;;;;40.37;25.07;;;;;;;;;;5056232;28;20194;-69
2023/05/10 01:49:04;;;;;;;40.50;25.00;;;;;;;;;;5056570;28;20544;-69
2023/05/10 01:51:37;;;;;;;44.53;26.27;;;;;;;;;;5056178;28;20652;-69
2023/05/10 01:54:04;;;;;;;40.03;25.70;;;;;;;;;;5038352;28;20220;-69
2023/05/10 01:56:32;;;;;;;45.33;27.33;;;;;;;;;;5038162;28;20215;-70
2023/05/10 01:58:59;;;;;;;44.23;26.73;;;;;;;;;;5038101;28;20198;-69
2023/05/10 02:01:26;;;;;;;47.90;27.33;;;;;;;;;;5038103;28;20189;-69
2023/05/10 02:03:52;;;;;;;46.57;27.77;;;;;;;;;;5056216;28;20179;-69
2023/05/10 02:06:21;;;;;;;44.57;27.87;;;;;;;;;;5055841;28;20281;-69
2023/05/10 02:08:47;;;;;;;52.93;28.87;;;;;;;;;;5038027;28;20182;-69
2023/05/10 02:11:14;;;;;;;49.10;28.67;;;;;;;;;;5055869;28;20183;-69
2023/05/10 02:13:40;;;;;;;49.33;28.27;;;;;;;;;;5055875;28;20225;-69
2023/05/10 02:16:06;;;;;;;52.40;29.80;;;;;;;;;;5055728;28;20549;-69
2023/05/10 02:18:34;;;;;;;51.17;28.97;;;;;;;;;;5037799;28;20639;-69
2023/05/10 02:21:00;;;;;;;46.43;28.33;;;;;;;;;;5055612;28;20174;-69
2023/05/10 02:23:26;;;;;;;49.90;28.30;;;;;;;;;;5037803;28;20401;-69
2023/05/10 02:25:53;;;;;;;44.03;28.50;;;;;;;;;;5037644;28;20183;-69
2023/05/10 02:28:20;;;;;;;47.40;28.47;;;;;;;;;;5055563;28;20236;-69
2023/05/10 02:30:47;;;;;;;48.73;28.93;;;;;;;;;;5037674;28;20719;-69
2023/05/10 02:33:14;;;;;;;49.60;29.03;;;;;;;;;;5055844;28;20206;-69
2023/05/10 02:35:40;;;;;;;55.37;30.50;;;;;;;;;;5056045;28;20236;-69
2023/05/10 02:38:06;;;;;;;53.77;29.70;;;;;;;;;;5037178;28;20691;-70
2023/05/10 02:40:33;;;;;;;49.40;27.70;;;;;;;;;;5037527;28;20218;-69
2023/05/10 02:42:59;;;;;;;48.43;28.67;;;;;;;;;;5037436;28;20175;-69
2023/05/10 02:45:28;;;;;;;51.27;28.63;;;;;;;;;;5055179;28;20170;-69
2023/05/10 02:47:54;;;;;;;53.77;29.40;;;;;;;;;;5037221;28;20695;-69
2023/05/10 02:50:20;;;;;;;50.17;29.00;;;;;;;;;;5054611;28;20178;-69
2023/05/10 02:52:48;;;;;;;52.57;29.10;;;;;;;;;;5055416;28;20182;-69
2023/05/10 02:55:15;;;;;;;52.27;28.90;;;;;;;;;;5055240;28;20636;-69
2023/05/10 02:57:43;;;;;;;51.20;29.93;;;;;;;;;;5037042;28;20721;-69
2023/05/10 03:00:10;;;;;;;52.77;28.13;;;;;;;;;;5036950;28;20209;-69
2023/05/10 03:02:39;;;;;;;52.20;28.77;;;;;;;;;;5037015;28;20188;-69
2023/05/10 03:05:05;;;;;;;48.83;27.60;;;;;;;;;;5036960;28;20263;-70
2023/05/10 03:07:31;;;;;;;53.60;28.73;;;;;;;;;;5054701;28;20590;-69
2023/05/10 03:09:57;;;;;;;49.83;27.03;;;;;;;;;;5036845;28;20196;-69
2023/05/10 03:12:42;;;;;;;50.77;27.90;;;;;;;;;;5054855;28;20179;-69
2023/05/10 03:15:29;;;;;;;49.50;27.63;;;;;;;;;;5036690;28;20182;-69
2023/05/10 03:17:58;;;;;;;49.87;26.83;;;;;;;;;;5054521;28;20632;-69
2023/05/10 03:20:24;;;;;;;47.77;26.43;;;;;;;;;;5036649;28;20266;-69
2023/05/10 03:23:01;;;;;;;45.73;25.90;;;;;;;;;;5054588;28;20174;-69
2023/05/10 03:25:27;;;;;;;46.00;26.43;;;;;;;;;;5054405;28;20162;-69
2023/05/10 03:27:53;;;;;;;47.57;26.33;;;;;;;;;;5054223;28;20190;-69
2023/05/10 03:30:19;;;;;;;45.20;25.27;;;;;;;;;;5054385;28;20174;-70
2023/05/10 03:32:45;;;;;;;49.00;26.17;;;;;;;;;;5054765;28;20250;-70
2023/05/10 03:35:13;;;;;;;45.63;25.07;;;;;;;;;;5054262;28;20722;-69
2023/05/10 03:37:38;;;;;;;46.90;25.07;;;;;;;;;;5054147;28;20202;-70
2023/05/10 03:40:05;;;;;;;43.63;25.70;;;;;;;;;;5036166;28;20252;-70
2023/05/10 03:42:31;;;;;;;47.70;26.43;;;;;;;;;;5054130;28;20182;-69
2023/05/10 03:44:57;;;;;;;49.67;27.93;;;;;;;;;;5036274;28;20181;-70
2023/05/10 03:47:23;;;;;;;54.13;27.63;;;;;;;;;;5054105;28;20273;-70
2023/05/10 03:49:49;;;;;;;54.40;28.03;;;;;;;;;;5054182;28;20720;-69
2023/05/10 03:52:15;;;;;;;50.13;26.83;;;;;;;;;;5036236;28;20583;-70
2023/05/10 03:54:41;;;;;;;51.97;26.07;;;;;;;;;;5053922;28;20648;-70
2023/05/10 03:57:07;;;;;;;47.70;27.63;;;;;;;;;;5053824;28;20202;-70
2023/05/10 03:59:33;;;;;;;46.53;25.67;;;;;;;;;;5053713;28;20206;-70
2023/05/10 04:01:59;;;;;;;50.97;27.63;;;;;;;;;;5052876;28;20213;-69
2023/05/10 04:04:25;;;;;;;52.77;28.03;;;;;;;;;;5053994;28;20189;-70
2023/05/10 04:06:51;;;;;;;50.47;27.33;;;;;;;;;;5053532;28;20194;-70
2023/05/10 04:09:17;;;;;;;51.90;27.83;;;;;;;;;;5053911;28;20189;-70
2023/05/10 04:11:43;;;;;;;53.47;27.27;;;;;;;;;;5053810;28;20182;-70
2023/05/10 04:14:09;;;;;;;49.93;27.10;;;;;;;;;;5035671;28;20590;-70
2023/05/10 04:16:35;;;;;;;51.33;28.03;;;;;;;;;;5035582;28;20750;-69
2023/05/10 04:19:01;;;;;;;57.70;27.23;;;;;;;;;;5035445;28;20284;-70
2023/05/10 04:21:27;;;;;;;50.60;28.33;;;;;;;;;;5035549;28;20636;-70
2023/05/10 04:23:53;;;;;;;59.83;29.57;;;;;;;;;;5053429;28;20174;-70
2023/05/10 04:26:20;;;;;;;55.63;29.43;;;;;;;;;;5053791;28;20248;-69
2023/05/10 04:28:45;;;;;;;57.70;29.70;;;;;;;;;;5035391;28;20213;-70
2023/05/10 04:31:12;;;;;;;59.97;32.27;;;;;;;;;;5053189;28;20185;-70
2023/05/10 04:33:37;;;;;;;63.17;32.57;;;;;;;;;;5035429;28;20564;-70
2023/05/10 04:36:04;;;;;;;61.50;31.53;;;;;;;;;;5053240;28;20174;-70
2023/05/10 04:38:30;;;;;;;64.93;32.73;;;;;;;;;;5053063;28;20683;-70
2023/05/10 04:41:04;;;;;;;66.33;33.27;;;;;;;;;;5035284;28;20204;-70
2023/05/10 04:43:30;;;;;;;67.53;35.93;;;;;;;;;;5035222;28;20185;-70
2023/05/10 04:45:59;;;;;;;71.87;36.20;;;;;;;;;;5053050;28;20175;-69
2023/05/10 04:48:25;;;;;;;70.83;36.23;;;;;;;;;;5053215;28;20182;-70
2023/05/10 04:50:51;;;;;;;74.27;37.40;;;;;;;;;;5053153;28;20666;-70
2023/05/10 04:53:17;;;;;;;79.27;38.77;;;;;;;;;;5053258;28;20648;-70
2023/05/10 04:55:43;;;;;;;78.67;39.23;;;;;;;;;;5052920;28;20261;-70
2023/05/10 04:58:09;;;;;;;81.83;40.53;;;;;;;;;;5034897;28;20233;-70
2023/05/10 05:00:35;;;;;;;79.03;39.60;;;;;;;;;;5035034;28;20177;-69
2023/05/10 05:03:01;;;;;;;87.70;40.50;;;;;;;;;;5053180;28;20696;-69
2023/05/10 05:05:27;;;;;;;81.40;41.27;;;;;;;;;;5052746;28;20210;-69
2023/05/10 05:07:53;;;;;;;80.20;41.63;;;;;;;;;;5035252;28;20619;-70
2023/05/10 05:10:19;;;;;;;84.60;42.67;;;;;;;;;;5052834;28;20182;-70
2023/05/10 05:12:45;;;;;;;82.57;41.67;;;;;;;;;;5035041;28;20191;-69
2023/05/10 05:15:11;;;;;;;80.97;42.30;;;;;;;;;;5057150;28;20181;-69
2023/05/10 05:17:37;;;;;;;79.60;42.63;;;;;;;;;;5056847;28;20194;-70
2023/05/10 05:20:03;;;;;;;81.93;42.27;;;;;;;;;;5038881;28;20213;-69
2023/05/10 05:22:29;;;;;;;75.43;41.73;;;;;;;;;;5056840;28;20178;-70
2023/05/10 05:24:56;;;;;;;79.97;43.90;;;;;;;;;;5039085;28;20178;-70
2023/05/10 05:27:24;;;;;;;80.80;43.03;;;;;;;;;;5038879;28;20194;-69
2023/05/10 05:29:50;;;;;;;82.00;42.53;;;;;;;;;;5056727;28;20194;-69
2023/05/10 05:32:17;;;;;;;80.30;42.73;;;;;;;;;;5056700;28;20587;-70
2023/05/10 05:34:45;;;;;;;81.23;44.50;;;;;;;;;;5038647;28;20647;-69
2023/05/10 05:37:14;;;;;;;77.03;42.07;;;;;;;;;;5056346;28;20306;-69
2023/05/10 05:39:40;;;;;;;80.87;44.13;;;;;;;;;;5056335;28;20202;-69
2023/05/10 05:42:06;;;;;;;83.40;44.90;;;;;;;;;;5038544;28;20547;-69
2023/05/10 05:44:32;;;;;;;83.07;45.77;;;;;;;;;;5038584;28;20166;-69
2023/05/10 05:46:58;;;;;;;83.27;46.47;;;;;;;;;;5038431;28;20194;-69
2023/05/10 05:49:24;;;;;;;83.50;46.60;;;;;;;;;;5056602;28;20185;-68
2023/05/10 05:51:50;;;;;;;92.13;47.53;;;;;;;;;;5038603;28;20190;-69
2023/05/10 05:54:16;;;;;;;84.30;47.07;;;;;;;;;;5047714;22;20242;-70
2023/05/10 05:56:44;;;;;;;85.07;45.20;;;;;;;;;;5018461;28;20180;-71
2023/05/10 05:59:09;;;;;;;82.37;47.40;;;;;;;;;;5018372;28;20692;-71
2023/05/10 06:01:35;;;;;;;84.47;46.47;;;;;;;;;;5036245;28;20250;-70
2023/05/10 06:04:01;;;;;;;79.80;45.23;;;;;;;;;;5018465;28;20668;-70
2023/05/10 06:06:27;;;;;;;81.73;45.93;;;;;;;;;;5036684;28;20197;-69
2023/05/10 06:08:53;;;;;;;82.03;44.87;;;;;;;;;;5035992;28;20187;-69
2023/05/10 06:11:20;;;;;;;84.77;45.80;;;;;;;;;;5018304;28;20255;-70
2023/05/10 06:13:46;;;;;;;83.40;45.37;;;;;;;;;;5018229;28;20626;-69
2023/05/10 06:16:13;;;;;;;91.27;46.47;;;;;;;;;;5036352;28;20175;-69
2023/05/10 06:18:39;;;;;;;90.73;46.50;;;;;;;;;;5018287;28;20221;-70
2023/05/10 06:21:05;;;;;;;84.53;45.23;;;;;;;;;;5035892;28;20215;-70
2023/05/10 06:23:31;;;;;;;91.83;47.70;;;;;;;;;;5035812;28;20248;-70
2023/05/10 06:25:57;;;;;;;92.27;48.00;;;;;;;;;;5034993;28;20171;-70
2023/05/10 06:28:23;;;;;;;92.37;47.23;;;;;;;;;;5035941;28;20190;-69
2023/05/10 06:30:49;;;;;;;93.83;46.57;;;;;;;;;;5018103;28;20183;-70
2023/05/10 06:33:15;;;;;;;93.60;48.63;;;;;;;;;;5018071;28;20199;-70
2023/05/10 06:35:41;;;;;;;90.60;48.23;;;;;;;;;;5035722;28;20175;-70
2023/05/10 06:38:07;;;;;;;93.70;49.03;;;;;;;;;;5017812;28;20198;-70
2023/05/10 06:40:33;;;;;;;88.07;45.77;;;;;;;;;;5035871;28;20180;-70
2023/05/10 06:42:59;;;;;;;89.30;47.57;;;;;;;;;;5035522;28;20238;-70
2023/05/10 06:45:25;;;;;;;93.37;46.87;;;;;;;;;;5035824;28;20261;-70
2023/05/10 06:47:51;;;;;;;88.17;45.67;;;;;;;;;;5035503;28;20178;-70
2023/05/10 06:50:17;;;;;;;88.50;47.20;;;;;;;;;;5035644;28;20175;-69
2023/05/10 06:52:43;;;;;;;90.80;47.97;;;;;;;;;;5017542;28;20179;-70
2023/05/10 06:55:09;;;;;;;85.93;46.73;;;;;;;;;;5042913;28;20239;-70
2023/05/10 06:57:35;;;;;;;83.97;46.97;;;;;;;;;;5031761;28;20255;-70
2023/05/10 07:00:03;;;;;;;87.87;44.70;;;;;;;;;;5047022;28;20214;-70
2023/05/10 07:02:29;;;;;;;83.10;45.10;;;;;;;;;;5048266;28;20183;-70
2023/05/10 07:04:56;;;;;;;84.03;45.60;;;;;;;;;;5037355;28;20199;-70
2023/05/10 07:07:22;;;;;;;81.87;43.93;;;;;;;;;;5035117;28;20175;-70
2023/05/10 07:09:49;;;;;;;79.83;44.70;;;;;;;;;;5035273;28;20178;-70
2023/05/10 07:12:15;;;;;;;73.80;41.37;;;;;;;;;;5017187;28;20193;-70
2023/05/10 07:14:41;;;;;;;75.27;41.43;;;;;;;;;;5035340;28;20203;-69
2023/05/10 07:17:07;;;;;;;74.23;41.27;;;;;;;;;;5017062;28;20219;-70
2023/05/10 07:19:33;;;;;;;72.60;39.97;;;;;;;;;;5016944;28;20238;-70
2023/05/10 07:21:59;;;;;;;69.43;38.00;;;;;;;;;;5017026;28;20650;-70
2023/05/10 07:24:25;;;;;;;77.07;39.73;;;;;;;;;;5034607;28;20199;-70
2023/05/10 07:26:51;;;;;;;76.03;41.40;;;;;;;;;;5016904;28;20179;-69
2023/05/10 07:29:17;;;;;;;76.50;39.90;;;;;;;;;;5034892;28;20210;-69
2023/05/10 07:31:43;;;;;;;73.97;39.77;;;;;;;;;;5016767;28;20183;-70
2023/05/10 07:34:09;;;;;;;74.50;38.60;;;;;;;;;;5034536;28;20199;-70
2023/05/10 07:36:35;;;;;;;67.13;36.80;;;;;;;;;;5034330;28;20186;-69
2023/05/10 07:39:01;;;;;;;65.57;38.67;;;;;;;;;;5034348;28;20214;-69
2023/05/10 07:41:27;;;;;;;53.23;34.23;;;;;;;;;;5034347;28;20590;-70
2023/05/10 07:43:54;;;;;;;61.43;35.27;;;;;;;;;;5034470;28;20237;-69
2023/05/10 07:46:20;;;;;;;57.63;36.13;;;;;;;;;;5022404;28;20266;-69
2023/05/10 07:48:46;;;;;;;55.40;35.03;;;;;;;;;;5019749;28;20568;-70
2023/05/10 07:51:12;;;;;;;57.57;37.23;;;;;;;;;;5019384;28;20546;-69
2023/05/10 07:53:38;;;;;;;53.93;35.47;;;;;;;;;;5034875;28;20689;-69
2023/05/10 07:56:44;;;;;;;59.10;35.77;;;;;;;;;;5034310;28;20645;-69
2023/05/10 07:59:10;;;;;;;52.33;34.40;;;;;;;;;;4935024;29;20218;-69
2023/05/10 08:01:36;;;;;;;53.73;34.73;;;;;;;;;;5017541;28;20199;-69
2023/05/10 08:04:02;;;;;;;54.93;35.47;;;;;;;;;;5033868;28;20627;-69
2023/05/10 08:06:29;;;;;;;52.00;33.83;;;;;;;;;;5033983;28;20628;-69
2023/05/10 08:08:55;;;;;;;55.17;34.53;;;;;;;;;;5016247;28;20191;-69
2023/05/10 08:11:21;;;;;;;56.87;36.07;;;;;;;;;;5033687;28;20258;-69
2023/05/10 08:13:48;;;;;;;51.90;34.53;;;;;;;;;;5033723;28;20202;-69
2023/05/10 08:16:14;;;;;;;56.93;34.80;;;;;;;;;;5034135;28;20625;-69
2023/05/10 08:18:40;;;;;;;52.80;35.80;;;;;;;;;;5033595;28;20213;-69
2023/05/10 08:21:06;;;;;;;54.13;33.97;;;;;;;;;;5033661;28;20182;-69
2023/05/10 08:23:32;;;;;;;49.20;33.53;;;;;;;;;;5015839;28;20221;-69
2023/05/10 08:25:59;;;;;;;53.17;33.30;;;;;;;;;;5033579;28;20182;-69
2023/05/10 08:28:25;;;;;;;45.17;31.17;;;;;;;;;;5015907;28;20179;-69
2023/05/10 08:30:51;;;;;;;41.13;29.80;;;;;;;;;;5034021;28;20636;-69
2023/05/10 08:33:18;;;;;;;41.00;29.37;;;;;;;;;;5034900;28;20191;-69
2023/05/10 08:35:44;;;;;;;41.60;30.00;;;;;;;;;;5033966;28;20175;-69
2023/05/10 08:38:10;;;;;;;43.83;29.20;;;;;;;;;;5033569;28;20533;-70
2023/05/10 08:40:37;;;;;;;44.70;29.90;;;;;;;;;;5033913;28;20203;-70
2023/05/10 08:43:03;;;;;;;44.10;31.37;;;;;;;;;;5033753;28;20203;-69
2023/05/10 08:45:32;;;;;;;40.43;28.73;;;;;;;;;;5015752;28;20172;-69
2023/05/10 08:47:59;;;;;;;40.40;29.00;;;;;;;;;;5015125;28;20634;-69
2023/05/10 08:50:25;;;;;;;46.97;31.67;;;;;;;;;;5015493;28;20183;-69
2023/05/10 08:52:53;;;;;;;40.17;29.57;;;;;;;;;;5015301;28;20191;-69
2023/05/10 08:55:19;;;;;;;39.43;29.27;;;;;;;;;;5033318;28;20186;-69
2023/05/10 08:57:45;;;;;;;35.73;26.50;;;;;;;;;;5033432;28;20559;-69
2023/05/10 09:00:11;;;;;;;31.40;24.87;;;;;;;;;;5015756;28;20206;-69
2023/05/10 09:02:37;;;;;;;34.47;23.60;;;;;;;;;;5033452;28;20179;-69
2023/05/10 09:05:04;;;;;;;27.63;21.93;;;;;;;;;;5015300;28;20715;-69
2023/05/10 09:07:30;;;;;;;27.87;20.70;;;;;;;;;;5033017;28;20183;-69
2023/05/10 09:09:57;;;;;;;30.17;22.23;;;;;;;;;;5033062;28;20175;-69
2023/05/10 09:12:23;;;;;;;26.87;20.70;;;;;;;;;;5015346;28;20672;-69
2023/05/10 09:14:51;;;;;;;25.03;19.13;;;;;;;;;;5033007;28;20202;-69
2023/05/10 09:17:17;;;;;;;25.43;20.63;;;;;;;;;;5016521;28;20190;-69
2023/05/10 09:19:43;;;;;;;28.63;20.07;;;;;;;;;;5020191;28;20629;-70
2023/05/10 09:22:08;;;;;;;32.60;22.13;;;;;;;;;;5038090;28;20254;-69
2023/05/10 09:24:35;;;;;;;28.00;20.23;;;;;;;;;;5034152;28;20266;-69
2023/05/10 09:27:02;;;;;;;27.77;20.37;;;;;;;;;;5015582;28;20213;-69
2023/05/10 09:29:39;;;;;;;24.17;19.50;;;;;;;;;;5033824;28;20179;-70
2023/05/10 09:32:05;;;;;;;24.03;19.30;;;;;;;;;;5034083;28;20194;-69
2023/05/10 09:34:32;;;;;;;23.53;19.23;;;;;;;;;;5033233;28;20203;-70
2023/05/10 09:37:04;;;;;;;25.00;20.97;;;;;;;;;;5033460;28;20254;-69
2023/05/10 09:39:33;;;;;;;24.20;20.27;;;;;;;;;;5015492;28;20199;-69
2023/05/10 09:42:00;;;;;;;25.73;21.67;;;;;;;;;;5033232;28;20176;-69
2023/05/10 09:44:27;;;;;;;29.03;22.70;;;;;;;;;;5015224;28;20195;-69
2023/05/10 09:46:53;;;;;;;29.13;22.50;;;;;;;;;;5032774;28;20172;-69
2023/05/10 09:49:19;;;;;;;29.97;22.50;;;;;;;;;;5032766;28;20194;-70
2023/05/10 09:51:45;;;;;;;27.07;21.63;;;;;;;;;;5033175;28;20179;-69
2023/05/10 09:54:12;;;;;;;30.97;23.40;;;;;;;;;;5032760;28;20214;-69
2023/05/10 09:56:40;;;;;;;36.43;23.73;;;;;;;;;;5014935;28;20668;-70
2023/05/10 09:59:07;;;;;;;31.07;23.57;;;;;;;;;;5033324;28;20641;-69
2023/05/10 10:01:33;;;;;;;32.33;23.50;;;;;;;;;;5036393;28;20172;-69
2023/05/10 10:03:58;;;;;;;29.73;22.97;;;;;;;;;;5036393;28;20195;-69
2023/05/10 10:06:25;;;;;;;36.50;23.00;;;;;;;;;;5036630;28;20175;-69
2023/05/10 10:08:51;;;;;;;31.83;23.07;;;;;;;;;;5019137;28;20190;-69
2023/05/10 10:11:17;;;;;;;27.20;22.50;;;;;;;;;;5036587;28;20233;-69
2023/05/10 10:13:43;;;;;;;27.23;21.30;;;;;;;;;;5036081;28;20203;-69
2023/05/10 10:16:09;;;;;;;26.43;20.93;;;;;;;;;;5036259;28;20187;-69
2023/05/10 10:18:39;;;;;;;27.13;21.47;;;;;;;;;;5035941;28;20211;-69
2023/05/10 10:21:08;;;;;;;27.83;20.77;;;;;;;;;;5018242;28;20179;-69
2023/05/10 10:23:37;;;;;;;25.07;20.80;;;;;;;;;;5039742;28;20191;-71
2023/05/10 10:26:05;;;;;;;28.70;21.60;;;;;;;;;;5048435;28;20175;-71
2023/05/10 10:28:47;;;;;;;26.83;22.23;;;;;;;;;;5037063;28;20175;-69
2023/05/10 10:31:31;;;;;;;27.13;21.87;;;;;;;;;;5036407;28;20155;-69
2023/05/10 10:34:02;;;;;;;28.87;21.83;;;;;;;;;;5036100;28;20198;-68
2023/05/10 10:36:28;;;;;;;32.97;22.83;;;;;;;;;;5017947;28;20183;-70
2023/05/10 10:38:58;;;;;;;31.73;21.70;;;;;;;;;;5036060;28;20241;-69
2023/05/10 10:41:28;;;;;;;29.50;22.07;;;;;;;;;;5035981;28;20667;-69
2023/05/10 10:44:13;;;;;;;26.47;22.43;;;;;;;;;;5035421;28;20198;-69
2023/05/10 10:46:59;;;;;;;31.10;25.43;;;;;;;;;;5035617;28;20175;-69
2023/05/10 10:49:25;;;;;;;28.40;24.60;;;;;;;;;;5035678;28;20533;-69
2023/05/10 10:52:16;;;;;;;30.43;24.83;;;;;;;;;;5035779;28;20183;-70
2023/05/10 10:54:50;;;;;;;30.10;24.40;;;;;;;;;;5024318;28;20716;-70
2023/05/10 10:57:18;;;;;;;28.27;22.27;;;;;;;;;;5035812;28;20175;-69
2023/05/10 10:59:45;;;;;;;27.60;22.30;;;;;;;;;;5035456;28;20203;-69
2023/05/10 11:02:31;;;;;;;26.27;21.63;;;;;;;;;;5017589;28;20176;-69
2023/05/10 11:04:57;;;;;;;24.77;20.73;;;;;;;;;;5017291;28;20199;-70
2023/05/10 11:07:23;;;;;;;22.17;18.77;;;;;;;;;;5035430;28;20175;-70
2023/05/10 11:09:49;;;;;;;22.70;18.90;;;;;;;;;;5035519;28;20170;-69
2023/05/10 11:12:15;;;;;;;22.60;19.07;;;;;;;;;;5034904;28;20266;-70
2023/05/10 11:14:41;;;;;;;21.97;18.73;;;;;;;;;;5017629;28;20211;-70
2023/05/10 11:17:24;;;;;;;22.13;17.13;;;;;;;;;;5017364;28;20644;-69
2023/05/10 11:20:09;;;;;;;19.70;17.60;;;;;;;;;;5035234;28;20209;-70
2023/05/10 11:22:51;;;;;;;21.40;17.23;;;;;;;;;;5017396;28;20724;-70
2023/05/10 11:25:17;;;;;;;20.63;18.33;;;;;;;;;;5017452;28;20249;-70
2023/05/10 11:27:43;;;;;;;20.80;17.57;;;;;;;;;;5034759;28;20624;-70
2023/05/10 11:30:12;;;;;;;20.23;17.30;;;;;;;;;;5017237;28;20179;-69
2023/05/10 11:32:40;;;;;;;20.10;17.97;;;;;;;;;;5035080;28;20258;-70
2023/05/10 11:35:10;;;;;;;20.40;16.57;;;;;;;;;;5035374;28;20270;-70
2023/05/10 11:37:37;;;;;;;16.83;15.03;;;;;;;;;;5034675;28;20175;-69
2023/05/10 11:40:04;;;;;;;18.70;14.50;;;;;;;;;;5034461;28;20194;-70
2023/05/10 11:42:30;;;;;;;14.30;12.53;;;;;;;;;;5034639;28;20225;-70
2023/05/10 11:44:56;;;;;;;15.37;12.97;;;;;;;;;;5034712;28;20224;-70
2023/05/10 11:47:22;;;;;;;17.37;12.33;;;;;;;;;;5017153;28;20207;-70
2023/05/10 11:49:48;;;;;;;14.73;12.10;;;;;;;;;;5016713;28;20320;-69
2023/05/10 11:52:14;;;;;;;13.83;12.30;;;;;;;;;;5034546;28;20537;-70
2023/05/10 11:54:51;;;;;;;14.30;12.13;;;;;;;;;;5034903;28;20225;-70
2023/05/10 11:57:20;;;;;;;13.97;11.53;;;;;;;;;;5034376;28;20170;-70
2023/05/10 11:59:45;;;;;;;14.87;12.03;;;;;;;;;;5016431;28;20206;-70
2023/05/10 12:02:12;;;;;;;16.53;11.93;;;;;;;;;;5035553;28;20645;-70
2023/05/10 12:04:38;;;;;;;13.93;11.03;;;;;;;;;;5017157;28;20722;-70
2023/05/10 12:07:04;;;;;;;12.73;11.17;;;;;;;;;;5016825;28;20186;-70
2023/05/10 12:09:30;;;;;;;12.17;10.47;;;;;;;;;;5034873;28;20247;-70
2023/05/10 12:11:59;;;;;;;12.63;10.53;;;;;;;;;;5016182;28;20190;-70
2023/05/10 12:14:25;;;;;;;13.33;10.20;;;;;;;;;;5016455;28;20252;-70
2023/05/10 12:16:52;;;;;;;11.37;9.13;;;;;;;;;;5016387;28;20269;-70
2023/05/10 12:19:21;;;;;;;12.27;10.23;;;;;;;;;;5034150;28;20207;-70
2023/05/10 12:21:47;;;;;;;11.87;10.63;;;;;;;;;;5033964;28;20221;-70
2023/05/10 12:24:16;;;;;;;11.60;9.90;;;;;;;;;;5033109;28;20198;-70
2023/05/10 12:26:42;;;;;;;12.17;10.33;;;;;;;;;;5034028;28;20229;-70
2023/05/10 12:29:18;;;;;;;11.57;10.43;;;;;;;;;;5034077;28;20192;-70
2023/05/10 12:31:52;;;;;;;11.03;9.93;;;;;;;;;;5016160;28;20274;-70
2023/05/10 12:34:30;;;;;;;10.43;9.33;;;;;;;;;;5016268;28;20620;-70
2023/05/10 12:36:56;;;;;;;11.87;10.37;;;;;;;;;;5016249;28;20190;-70
2023/05/10 12:39:22;;;;;;;10.67;9.47;;;;;;;;;;5016543;28;20211;-70
2023/05/10 12:41:48;;;;;;;10.10;9.17;;;;;;;;;;5016136;28;20179;-69
2023/05/10 12:44:14;;;;;;;11.70;9.97;;;;;;;;;;5016263;28;20206;-70
2023/05/10 12:46:40;;;;;;;10.13;9.03;;;;;;;;;;5033724;28;20190;-70
2023/05/10 12:49:06;;;;;;;10.63;9.27;;;;;;;;;;5016117;28;20604;-70
2023/05/10 12:51:32;;;;;;;10.97;8.57;;;;;;;;;;5017143;28;20266;-70
2023/05/10 12:53:58;;;;;;;8.53;7.73;;;;;;;;;;5017388;28;20219;-70
2023/05/10 12:56:24;;;;;;;11.03;9.03;;;;;;;;;;5034567;28;20171;-70
2023/05/10 12:58:50;;;;;;;9.30;8.10;;;;;;;;;;5016144;28;20762;-70
2023/05/10 13:01:16;;;;;;;11.30;7.90;;;;;;;;;;5015632;28;20233;-70
2023/05/10 13:03:43;;;;;;;8.57;7.70;;;;;;;;;;5015029;28;20763;-70
2023/05/10 13:06:09;;;;;;;11.00;7.60;;;;;;;;;;5033108;28;20177;-70
2023/05/10 13:08:35;;;;;;;10.07;7.80;;;;;;;;;;5015523;28;20179;-70
2023/05/10 13:11:01;;;;;;;9.43;7.13;;;;;;;;;;5015498;28;20286;-69
2023/05/10 13:13:27;;;;;;;10.00;7.17;;;;;;;;;;5033257;28;20199;-70
2023/05/10 13:15:53;;;;;;;7.63;6.37;;;;;;;;;;5033148;28;20229;-70
2023/05/10 13:18:19;;;;;;;10.87;7.57;;;;;;;;;;5032885;28;20182;-70
2023/05/10 13:20:45;;;;;;;9.07;7.70;;;;;;;;;;5015011;28;20218;-70
2023/05/10 13:23:11;;;;;;;9.27;7.63;;;;;;;;;;5032954;28;20195;-69
2023/05/10 13:25:37;;;;;;;8.80;7.43;;;;;;;;;;5015164;28;20185;-70
2023/05/10 13:28:03;;;;;;;9.57;8.63;;;;;;;;;;5015038;28;20559;-70
2023/05/10 13:30:29;;;;;;;8.60;7.90;;;;;;;;;;5015161;28;20257;-70
2023/05/10 13:32:55;;;;;;;8.17;7.33;;;;;;;;;;5056045;23;20235;-68
2023/05/10 13:35:21;;;;;;;10.27;8.40;;;;;;;;;;5018095;28;20179;-68
2023/05/10 13:37:47;;;;;;;9.60;8.53;;;;;;;;;;5037855;28;20225;-68
2023/05/10 13:40:15;;;;;;;12.30;11.00;;;;;;;;;;5019433;28;20207;-68
2023/05/10 13:42:41;;;;;;;11.07;9.97;;;;;;;;;;5037373;28;20187;-68
2023/05/10 13:45:07;;;;;;;11.60;10.50;;;;;;;;;;5038379;28;20167;-68
2023/05/10 13:47:33;;;;;;;10.97;9.97;;;;;;;;;;5019015;28;20175;-68
2023/05/10 13:49:59;;;;;;;;;;;;;;;;;;5037651;28;20036;-68
2023/05/10 13:52:25;;;;;;;12.90;11.60;;;;;;;;;;5017782;28;20501;-68
2023/05/10 13:54:52;;;;;;;11.03;10.03;;;;;;;;;;5019937;28;20457;-68
2023/05/10 13:57:18;;;;;;;12.10;10.90;;;;;;;;;;5019077;28;20731;-68
2023/05/10 13:59:44;;;;;;;10.20;8.93;;;;;;;;;;5037147;28;20234;-68
2023/05/10 14:02:12;;;;;;;11.10;9.90;;;;;;;;;;5036564;28;20180;-67
2023/05/10 14:04:38;;;;;;;9.30;8.40;;;;;;;;;;5037639;28;20582;-69
2023/05/10 14:07:04;;;;;;;11.67;10.47;;;;;;;;;;5019080;28;20179;-70
2023/05/10 14:09:31;;;;;;;11.87;10.67;;;;;;;;;;5036656;28;20189;-71
2023/05/10 14:11:57;;;;;;;14.53;12.60;;;;;;;;;;5018452;28;20211;-68
2023/05/10 14:14:23;;;;;;;12.60;11.37;;;;;;;;;;5018660;28;20241;-68
2023/05/10 14:16:49;;;;;;;10.70;9.70;;;;;;;;;;5036515;28;20183;-68
2023/05/10 14:19:15;;;;;;;10.63;9.53;;;;;;;;;;5037071;28;20203;-68